Minocqua, Wisconsin
Current Conditions -  °F | °C
As of 1:55 PM on Thursday 30 Oct 2014 (Local Time) from KARV Reporting Station
Overcast Overcast  
Wind Chill: 35°   Ceiling: 2000
Heat Index: 40°   Visibility: 10mi
Dew Point: 33°   Wind: 7mph
Humidity: 77%   Direction: 300°WNW
Pressure: 30.02"   Gusts: NA
Location:  45.93°N, 89.73°W
Report Text: KARV 301855Z AUTO 30006KT 10SM OVC020 04/01 A3002 RMK AO2 T00420005
Loading
Personal Weather Stations






























Interactive Weather Map New forecast layout! Learn more

10-Day Weather Forecast

Advertisements
Track Severe Weather on mobile